sensor_id;sensor_type;location;lat;lon;timestamp;temperature;humidity
67163;DHT22;54092;53.088;8.850;2023-05-27T00:02:15;8.80;99.90
67163;DHT22;54092;53.088;8.850;2023-05-27T00:04:41;8.80;99.90
67163;DHT22;54092;53.088;8.850;2023-05-27T00:07:06;8.70;99.90
67163;DHT22;54092;53.088;8.850;2023-05-27T00:09:32;8.70;99.90
67163;DHT22;54092;53.088;8.850;2023-05-27T00:11:57;8.60;99.90
67163;DHT22;54092;53.088;8.850;2023-05-27T00:14:22;8.60;99.90
67163;DHT22;54092;53.088;8.850;2023-05-27T00:16:49;8.60;99.90
67163;DHT22;54092;53.088;8.850;2023-05-27T00:19:16;8.50;99.90
67163;DHT22;54092;53.088;8.850;2023-05-27T00:21:42;8.50;99.90
67163;DHT22;54092;53.088;8.850;2023-05-27T00:24:08;8.50;99.90
67163;DHT22;54092;53.088;8.850;2023-05-27T00:26:34;8.40;99.90
67163;DHT22;54092;53.088;8.850;2023-05-27T00:29:00;8.40;99.90
67163;DHT22;54092;53.088;8.850;2023-05-27T00:31:25;8.40;99.90
67163;DHT22;54092;53.088;8.850;2023-05-27T00:33:51;8.40;99.90
67163;DHT22;54092;53.088;8.850;2023-05-27T00:36:16;8.40;99.90
67163;DHT22;54092;53.088;8.850;2023-05-27T00:38:42;8.40;99.90
67163;DHT22;54092;53.088;8.850;2023-05-27T00:41:10;8.40;99.90
67163;DHT22;54092;53.088;8.850;2023-05-27T00:43:36;8.40;99.90
67163;DHT22;54092;53.088;8.850;2023-05-27T00:46:02;8.40;99.90
67163;DHT22;54092;53.088;8.850;2023-05-27T00:48:28;8.30;99.90
67163;DHT22;54092;53.088;8.850;2023-05-27T00:50:54;8.30;99.90
67163;DHT22;54092;53.088;8.850;2023-05-27T00:53:21;8.30;99.90
67163;DHT22;54092;53.088;8.850;2023-05-27T00:55:47;8.40;99.90
67163;DHT22;54092;53.088;8.850;2023-05-27T00:58:13;8.30;99.90
67163;DHT22;54092;53.088;8.850;2023-05-27T01:00:38;8.40;99.90
67163;DHT22;54092;53.088;8.850;2023-05-27T01:03:05;8.30;99.90
67163;DHT22;54092;53.088;8.850;2023-05-27T01:05:32;8.40;99.90
67163;DHT22;54092;53.088;8.850;2023-05-27T01:08:34;8.30;99.90
67163;DHT22;54092;53.088;8.850;2023-05-27T01:10:57;8.30;99.90
67163;DHT22;54092;53.088;8.850;2023-05-27T01:13:43;8.30;99.90
67163;DHT22;54092;53.088;8.850;2023-05-27T01:16:13;8.20;99.90
67163;DHT22;54092;53.088;8.850;2023-05-27T01:18:43;8.20;99.90
67163;DHT22;54092;53.088;8.850;2023-05-27T01:21:15;8.10;99.90
67163;DHT22;54092;53.088;8.850;2023-05-27T01:23:43;8.10;99.90
67163;DHT22;54092;53.088;8.850;2023-05-27T01:26:08;8.20;99.90
67163;DHT22;54092;53.088;8.850;2023-05-27T01:28:34;8.10;99.90
67163;DHT22;54092;53.088;8.850;2023-05-27T01:31:22;8.10;99.90
67163;DHT22;54092;53.088;8.850;2023-05-27T01:33:59;8.10;99.90
67163;DHT22;54092;53.088;8.850;2023-05-27T01:36:29;8.10;99.90
67163;DHT22;54092;53.088;8.850;2023-05-27T01:38:56;8.10;99.90
67163;DHT22;54092;53.088;8.850;2023-05-27T01:41:23;8.10;99.90
67163;DHT22;54092;53.088;8.850;2023-05-27T01:43:49;8.10;99.90
67163;DHT22;54092;53.088;8.850;2023-05-27T01:46:16;8.10;99.90
67163;DHT22;54092;53.088;8.850;2023-05-27T01:48:42;8.10;99.90
67163;DHT22;54092;53.088;8.850;2023-05-27T01:51:08;8.10;99.90
67163;DHT22;54092;53.088;8.850;2023-05-27T01:53:34;8.10;99.90
67163;DHT22;54092;53.088;8.850;2023-05-27T01:55:59;8.10;99.90
67163;DHT22;54092;53.088;8.850;2023-05-27T01:58:25;8.00;99.90
67163;DHT22;54092;53.088;8.850;2023-05-27T02:00:52;7.90;99.90
67163;DHT22;54092;53.088;8.850;2023-05-27T02:03:18;7.90;99.90
67163;DHT22;54092;53.088;8.850;2023-05-27T02:05:43;7.90;99.90
67163;DHT22;54092;53.088;8.850;2023-05-27T02:08:10;7.90;99.90
67163;DHT22;54092;53.088;8.850;2023-05-27T02:10:35;7.90;99.90
67163;DHT22;54092;53.088;8.850;2023-05-27T02:13:01;7.90;99.90
67163;DHT22;54092;53.088;8.850;2023-05-27T02:15:26;7.90;99.90
67163;DHT22;54092;53.088;8.850;2023-05-27T02:17:52;7.90;99.90
67163;DHT22;54092;53.088;8.850;2023-05-27T02:20:21;7.80;99.90
67163;DHT22;54092;53.088;8.850;2023-05-27T02:22:49;7.80;99.90
67163;DHT22;54092;53.088;8.850;2023-05-27T02:25:15;7.80;99.90
67163;DHT22;54092;53.088;8.850;2023-05-27T02:27:40;7.80;99.90
67163;DHT22;54092;53.088;8.850;2023-05-27T02:30:07;7.70;99.90
67163;DHT22;54092;53.088;8.850;2023-05-27T02:32:33;7.70;99.90
67163;DHT22;54092;53.088;8.850;2023-05-27T02:34:59;7.70;99.90
67163;DHT22;54092;53.088;8.850;2023-05-27T02:37:24;7.70;99.90
67163;DHT22;54092;53.088;8.850;2023-05-27T02:39:52;7.70;99.90
67163;DHT22;54092;53.088;8.850;2023-05-27T02:42:18;7.70;99.90
67163;DHT22;54092;53.088;8.850;2023-05-27T02:44:43;7.70;99.90
67163;DHT22;54092;53.088;8.850;2023-05-27T02:47:09;7.60;99.90
67163;DHT22;54092;53.088;8.850;2023-05-27T02:49:34;7.60;99.90
67163;DHT22;54092;53.088;8.850;2023-05-27T02:52:00;7.50;99.90
67163;DHT22;54092;53.088;8.850;2023-05-27T02:54:25;7.50;99.90
67163;DHT22;54092;53.088;8.850;2023-05-27T02:56:51;7.50;99.90
67163;DHT22;54092;53.088;8.850;2023-05-27T02:59:16;7.40;99.90
67163;DHT22;54092;53.088;8.850;2023-05-27T03:01:42;7.40;99.90
67163;DHT22;54092;53.088;8.850;2023-05-27T03:04:07;7.40;99.90
67163;DHT22;54092;53.088;8.850;2023-05-27T03:06:33;7.30;99.90
67163;DHT22;54092;53.088;8.850;2023-05-27T03:08:58;7.30;99.90
67163;DHT22;54092;53.088;8.850;2023-05-27T03:11:25;7.30;99.90
67163;DHT22;54092;53.088;8.850;2023-05-27T03:13:51;7.30;99.90
67163;DHT22;54092;53.088;8.850;2023-05-27T03:16:16;7.40;99.90
67163;DHT22;54092;53.088;8.850;2023-05-27T03:18:45;7.40;99.90
67163;DHT22;54092;53.088;8.850;2023-05-27T03:21:10;7.30;99.90
67163;DHT22;54092;53.088;8.850;2023-05-27T03:23:36;7.40;99.90
67163;DHT22;54092;53.088;8.850;2023-05-27T03:26:01;7.40;99.90
67163;DHT22;54092;53.088;8.850;2023-05-27T03:28:27;7.40;99.90
67163;DHT22;54092;53.088;8.850;2023-05-27T03:30:52;7.40;99.90
67163;DHT22;54092;53.088;8.850;2023-05-27T03:33:22;7.50;99.90
67163;DHT22;54092;53.088;8.850;2023-05-27T03:35:47;7.50;99.90
67163;DHT22;54092;53.088;8.850;2023-05-27T03:38:13;7.50;99.90
67163;DHT22;54092;53.088;8.850;2023-05-27T03:40:38;7.40;99.90
67163;DHT22;54092;53.088;8.850;2023-05-27T03:43:04;7.40;99.90
67163;DHT22;54092;53.088;8.850;2023-05-27T03:45:30;7.30;99.90
67163;DHT22;54092;53.088;8.850;2023-05-27T03:47:55;7.30;99.90
67163;DHT22;54092;53.088;8.850;2023-05-27T03:50:21;7.30;99.90
67163;DHT22;54092;53.088;8.850;2023-05-27T03:52:46;7.40;99.90
67163;DHT22;54092;53.088;8.850;2023-05-27T03:55:11;7.30;99.90
67163;DHT22;54092;53.088;8.850;2023-05-27T03:57:37;7.40;99.90
67163;DHT22;54092;53.088;8.850;2023-05-27T04:00:03;7.40;99.90
67163;DHT22;54092;53.088;8.850;2023-05-27T04:02:33;7.40;99.90
67163;DHT22;54092;53.088;8.850;2023-05-27T04:04:59;7.40;99.90
67163;DHT22;54092;53.088;8.850;2023-05-27T04:07:25;7.50;99.90
67163;DHT22;54092;53.088;8.850;2023-05-27T04:09:52;7.50;99.90
67163;DHT22;54092;53.088;8.850;2023-05-27T04:12:18;7.60;99.90
67163;DHT22;54092;53.088;8.850;2023-05-27T04:14:43;7.60;99.90
67163;DHT22;54092;53.088;8.850;2023-05-27T04:17:09;7.60;99.90
67163;DHT22;54092;53.088;8.850;2023-05-27T04:19:35;7.70;99.90
67163;DHT22;54092;53.088;8.850;2023-05-27T04:22:00;7.70;99.90
67163;DHT22;54092;53.088;8.850;2023-05-27T04:24:26;7.80;99.90
67163;DHT22;54092;53.088;8.850;2023-05-27T04:26:51;7.90;99.90
67163;DHT22;54092;53.088;8.850;2023-05-27T04:29:17;7.90;99.90
67163;DHT22;54092;53.088;8.850;2023-05-27T04:31:42;8.00;99.90
67163;DHT22;54092;53.088;8.850;2023-05-27T04:34:08;8.00;99.90
67163;DHT22;54092;53.088;8.850;2023-05-27T04:36:34;8.00;99.90
67163;DHT22;54092;53.088;8.850;2023-05-27T04:39:00;8.10;99.90
67163;DHT22;54092;53.088;8.850;2023-05-27T04:41:30;8.10;99.90
67163;DHT22;54092;53.088;8.850;2023-05-27T04:43:58;8.20;99.90
67163;DHT22;54092;53.088;8.850;2023-05-27T04:46:24;8.20;99.90
67163;DHT22;54092;53.088;8.850;2023-05-27T04:48:51;8.30;99.90
67163;DHT22;54092;53.088;8.850;2023-05-27T04:51:17;8.40;99.90
67163;DHT22;54092;53.088;8.850;2023-05-27T04:53:45;8.40;99.90
67163;DHT22;54092;53.088;8.850;2023-05-27T04:56:13;8.50;99.90
67163;DHT22;54092;53.088;8.850;2023-05-27T04:58:40;8.50;99.90
67163;DHT22;54092;53.088;8.850;2023-05-27T05:01:08;8.60;99.90
67163;DHT22;54092;53.088;8.850;2023-05-27T05:03:42;8.70;99.90
67163;DHT22;54092;53.088;8.850;2023-05-27T05:06:20;8.70;99.90
67163;DHT22;54092;53.088;8.850;2023-05-27T05:08:47;8.80;99.90
67163;DHT22;54092;53.088;8.850;2023-05-27T05:11:13;8.90;99.90
67163;DHT22;54092;53.088;8.850;2023-05-27T05:13:39;8.90;99.90
67163;DHT22;54092;53.088;8.850;2023-05-27T05:16:05;9.00;99.90
67163;DHT22;54092;53.088;8.850;2023-05-27T05:18:31;9.00;99.90
67163;DHT22;54092;53.088;8.850;2023-05-27T05:20:56;9.10;99.90
67163;DHT22;54092;53.088;8.850;2023-05-27T05:23:22;9.20;99.90
67163;DHT22;54092;53.088;8.850;2023-05-27T05:25:47;9.30;99.90
67163;DHT22;54092;53.088;8.850;2023-05-27T05:28:19;9.30;99.90
67163;DHT22;54092;53.088;8.850;2023-05-27T05:30:45;9.40;99.90
67163;DHT22;54092;53.088;8.850;2023-05-27T05:33:10;9.40;99.90
67163;DHT22;54092;53.088;8.850;2023-05-27T05:35:36;9.50;99.90
67163;DHT22;54092;53.088;8.850;2023-05-27T05:38:01;9.50;99.90
67163;DHT22;54092;53.088;8.850;2023-05-27T05:40:27;9.50;99.90
67163;DHT22;54092;53.088;8.850;2023-05-27T05:42:52;9.60;99.90
67163;DHT22;54092;53.088;8.850;2023-05-27T05:45:18;9.60;99.90
67163;DHT22;54092;53.088;8.850;2023-05-27T05:47:44;9.70;99.90
67163;DHT22;54092;53.088;8.850;2023-05-27T05:50:09;9.70;99.90
67163;DHT22;54092;53.088;8.850;2023-05-27T05:52:35;9.70;99.90
67163;DHT22;54092;53.088;8.850;2023-05-27T05:55:00;9.80;99.90
67163;DHT22;54092;53.088;8.850;2023-05-27T05:57:26;9.80;99.90
67163;DHT22;54092;53.088;8.850;2023-05-27T05:59:51;9.90;99.90
67163;DHT22;54092;53.088;8.850;2023-05-27T06:02:17;10.00;99.90
67163;DHT22;54092;53.088;8.850;2023-05-27T06:04:44;10.00;99.90
67163;DHT22;54092;53.088;8.850;2023-05-27T06:07:09;10.10;99.90
67163;DHT22;54092;53.088;8.850;2023-05-27T06:09:35;10.20;99.90
67163;DHT22;54092;53.088;8.850;2023-05-27T06:12:00;10.20;99.90
67163;DHT22;54092;53.088;8.850;2023-05-27T06:14:26;10.40;99.90
67163;DHT22;54092;53.088;8.850;2023-05-27T06:16:51;10.50;99.90
67163;DHT22;54092;53.088;8.850;2023-05-27T06:19:17;10.60;99.90
67163;DHT22;54092;53.088;8.850;2023-05-27T06:21:42;10.70;99.90
67163;DHT22;54092;53.088;8.850;2023-05-27T06:24:08;10.90;99.90
67163;DHT22;54092;53.088;8.850;2023-05-27T06:26:33;11.00;99.90
67163;DHT22;54092;53.088;8.850;2023-05-27T06:28:59;11.10;99.90
67163;DHT22;54092;53.088;8.850;2023-05-27T06:31:24;11.30;99.90
67163;DHT22;54092;53.088;8.850;2023-05-27T06:33:52;11.50;99.90
67163;DHT22;54092;53.088;8.850;2023-05-27T06:36:17;11.60;99.90
67163;DHT22;54092;53.088;8.850;2023-05-27T06:38:44;11.70;99.90
67163;DHT22;54092;53.088;8.850;2023-05-27T06:41:09;11.80;99.90
67163;DHT22;54092;53.088;8.850;2023-05-27T06:43:35;11.90;99.90
67163;DHT22;54092;53.088;8.850;2023-05-27T06:46:00;12.00;99.90
67163;DHT22;54092;53.088;8.850;2023-05-27T06:48:26;12.20;99.90
67163;DHT22;54092;53.088;8.850;2023-05-27T06:50:52;12.30;99.90
67163;DHT22;54092;53.088;8.850;2023-05-27T06:53:20;12.30;99.90
67163;DHT22;54092;53.088;8.850;2023-05-27T06:55:46;12.30;99.90
67163;DHT22;54092;53.088;8.850;2023-05-27T06:58:11;12.50;99.90
67163;DHT22;54092;53.088;8.850;2023-05-27T07:00:37;12.70;99.90
67163;DHT22;54092;53.088;8.850;2023-05-27T07:03:02;12.70;99.90
67163;DHT22;54092;53.088;8.850;2023-05-27T07:05:28;12.80;99.90
67163;DHT22;54092;53.088;8.850;2023-05-27T07:07:54;12.90;99.90
67163;DHT22;54092;53.088;8.850;2023-05-27T07:10:19;12.90;99.90
67163;DHT22;54092;53.088;8.850;2023-05-27T07:12:45;13.00;99.90
67163;DHT22;54092;53.088;8.850;2023-05-27T07:15:10;13.10;99.90
67163;DHT22;54092;53.088;8.850;2023-05-27T07:17:36;13.30;99.90
67163;DHT22;54092;53.088;8.850;2023-05-27T07:20:01;13.40;99.90
67163;DHT22;54092;53.088;8.850;2023-05-27T07:22:27;13.30;99.90
67163;DHT22;54092;53.088;8.850;2023-05-27T07:24:53;13.40;99.90
67163;DHT22;54092;53.088;8.850;2023-05-27T07:27:18;13.50;99.90
67163;DHT22;54092;53.088;8.850;2023-05-27T07:29:44;13.60;99.90
67163;DHT22;54092;53.088;8.850;2023-05-27T07:32:09;13.70;99.90
67163;DHT22;54092;53.088;8.850;2023-05-27T07:34:35;13.80;99.90
67163;DHT22;54092;53.088;8.850;2023-05-27T07:37:00;14.00;99.90
67163;DHT22;54092;53.088;8.850;2023-05-27T07:39:26;14.00;99.90
67163;DHT22;54092;53.088;8.850;2023-05-27T07:41:51;14.00;99.90
67163;DHT22;54092;53.088;8.850;2023-05-27T07:44:18;13.90;99.90
67163;DHT22;54092;53.088;8.850;2023-05-27T07:46:44;14.00;99.90
67163;DHT22;54092;53.088;8.850;2023-05-27T07:49:09;14.20;99.90
67163;DHT22;54092;53.088;8.850;2023-05-27T07:51:35;14.50;99.90
67163;DHT22;54092;53.088;8.850;2023-05-27T07:54:01;14.60;99.90
67163;DHT22;54092;53.088;8.850;2023-05-27T07:56:27;14.70;99.90
67163;DHT22;54092;53.088;8.850;2023-05-27T07:58:52;14.60;99.90
67163;DHT22;54092;53.088;8.850;2023-05-27T08:01:18;14.70;99.90
67163;DHT22;54092;53.088;8.850;2023-05-27T08:03:43;14.90;99.90
67163;DHT22;54092;53.088;8.850;2023-05-27T08:06:09;15.00;99.90
67163;DHT22;54092;53.088;8.850;2023-05-27T08:08:35;15.10;99.90
67163;DHT22;54092;53.088;8.850;2023-05-27T08:11:00;15.10;99.90
67163;DHT22;54092;53.088;8.850;2023-05-27T08:13:26;15.20;99.90
67163;DHT22;54092;53.088;8.850;2023-05-27T08:15:51;15.30;99.90
67163;DHT22;54092;53.088;8.850;2023-05-27T08:18:17;15.50;99.90
67163;DHT22;54092;53.088;8.850;2023-05-27T08:20:42;15.70;99.90
67163;DHT22;54092;53.088;8.850;2023-05-27T08:23:08;15.90;99.90
67163;DHT22;54092;53.088;8.850;2023-05-27T08:25:33;16.10;99.90
67163;DHT22;54092;53.088;8.850;2023-05-27T08:27:59;16.40;99.90
67163;DHT22;54092;53.088;8.850;2023-05-27T08:30:28;16.50;99.90
67163;DHT22;54092;53.088;8.850;2023-05-27T08:32:57;16.70;99.90
67163;DHT22;54092;53.088;8.850;2023-05-27T08:35:23;16.70;99.90
67163;DHT22;54092;53.088;8.850;2023-05-27T08:37:49;16.90;99.90
67163;DHT22;54092;53.088;8.850;2023-05-27T08:40:16;17.10;99.90
67163;DHT22;54092;53.088;8.850;2023-05-27T08:42:42;17.40;99.90
67163;DHT22;54092;53.088;8.850;2023-05-27T08:45:08;17.70;99.90
67163;DHT22;54092;53.088;8.850;2023-05-27T08:47:34;17.90;99.90
67163;DHT22;54092;53.088;8.850;2023-05-27T08:50:01;17.80;99.90
67163;DHT22;54092;53.088;8.850;2023-05-27T08:52:29;17.80;99.90
67163;DHT22;54092;53.088;8.850;2023-05-27T08:54:58;18.30;99.90
67163;DHT22;54092;53.088;8.850;2023-05-27T08:57:28;19.00;99.90
67163;DHT22;54092;53.088;8.850;2023-05-27T08:59:54;19.50;99.90
67163;DHT22;54092;53.088;8.850;2023-05-27T09:02:21;19.80;99.90
67163;DHT22;54092;53.088;8.850;2023-05-27T09:04:47;20.00;99.90
67163;DHT22;54092;53.088;8.850;2023-05-27T09:07:12;20.10;99.90
67163;DHT22;54092;53.088;8.850;2023-05-27T09:09:39;20.30;99.90
67163;DHT22;54092;53.088;8.850;2023-05-27T09:12:05;20.70;99.90
67163;DHT22;54092;53.088;8.850;2023-05-27T09:14:31;20.70;99.90
67163;DHT22;54092;53.088;8.850;2023-05-27T09:16:57;20.70;99.90
67163;DHT22;54092;53.088;8.850;2023-05-27T09:19:30;20.50;99.90
67163;DHT22;54092;53.088;8.850;2023-05-27T09:21:56;20.20;99.90
67163;DHT22;54092;53.088;8.850;2023-05-27T09:24:24;19.40;99.90
67163;DHT22;54092;53.088;8.850;2023-05-27T09:26:51;18.90;99.90
67163;DHT22;54092;53.088;8.850;2023-05-27T09:29:18;19.00;99.90
67163;DHT22;54092;53.088;8.850;2023-05-27T09:31:45;19.40;99.90
67163;DHT22;54092;53.088;8.850;2023-05-27T09:34:14;20.60;99.90
67163;DHT22;54092;53.088;8.850;2023-05-27T09:36:48;21.90;99.90
67163;DHT22;54092;53.088;8.850;2023-05-27T09:39:14;23.10;99.90
67163;DHT22;54092;53.088;8.850;2023-05-27T09:41:41;24.20;99.90
67163;DHT22;54092;53.088;8.850;2023-05-27T09:44:06;24.70;99.90
67163;DHT22;54092;53.088;8.850;2023-05-27T09:46:33;24.90;99.90
67163;DHT22;54092;53.088;8.850;2023-05-27T09:49:00;25.10;99.90
67163;DHT22;54092;53.088;8.850;2023-05-27T09:51:29;25.40;99.90
67163;DHT22;54092;53.088;8.850;2023-05-27T09:53:55;25.40;99.90
67163;DHT22;54092;53.088;8.850;2023-05-27T09:56:25;24.70;99.90
67163;DHT22;54092;53.088;8.850;2023-05-27T09:58:55;23.50;99.90
67163;DHT22;54092;53.088;8.850;2023-05-27T10:01:25;23.40;99.90
67163;DHT22;54092;53.088;8.850;2023-05-27T10:03:51;23.40;99.90
67163;DHT22;54092;53.088;8.850;2023-05-27T10:06:17;24.20;99.90
67163;DHT22;54092;53.088;8.850;2023-05-27T10:08:44;25.20;99.90
67163;DHT22;54092;53.088;8.850;2023-05-27T10:11:13;25.50;99.90
67163;DHT22;54092;53.088;8.850;2023-05-27T10:13:38;26.00;99.90
67163;DHT22;54092;53.088;8.850;2023-05-27T10:16:04;26.30;99.90
67163;DHT22;54092;53.088;8.850;2023-05-27T10:18:30;25.90;99.90
67163;DHT22;54092;53.088;8.850;2023-05-27T10:21:00;25.90;99.90
67163;DHT22;54092;53.088;8.850;2023-05-27T10:23:29;26.40;99.90
67163;DHT22;54092;53.088;8.850;2023-05-27T10:26:06;26.40;99.90
67163;DHT22;54092;53.088;8.850;2023-05-27T10:28:37;26.50;99.90
67163;DHT22;54092;53.088;8.850;2023-05-27T10:33:37;27.10;99.90
67163;DHT22;54092;53.088;8.850;2023-05-27T10:36:11;27.60;99.90
67163;DHT22;54092;53.088;8.850;2023-05-27T10:38:37;27.70;99.90
67163;DHT22;54092;53.088;8.850;2023-05-27T10:41:04;27.80;99.90
67163;DHT22;54092;53.088;8.850;2023-05-27T10:43:30;28.00;99.90
67163;DHT22;54092;53.088;8.850;2023-05-27T10:46:12;28.10;99.90
67163;DHT22;54092;53.088;8.850;2023-05-27T10:48:38;28.20;99.90
67163;DHT22;54092;53.088;8.850;2023-05-27T10:51:07;26.60;99.90
67163;DHT22;54092;53.088;8.850;2023-05-27T10:53:35;27.30;99.90
67163;DHT22;54092;53.088;8.850;2023-05-27T10:56:00;27.50;99.90
67163;DHT22;54092;53.088;8.850;2023-05-27T10:58:27;27.90;99.90
67163;DHT22;54092;53.088;8.850;2023-05-27T11:00:54;27.50;99.90
67163;DHT22;54092;53.088;8.850;2023-05-27T11:03:26;28.10;99.90
67163;DHT22;54092;53.088;8.850;2023-05-27T11:05:59;28.30;99.90
67163;DHT22;54092;53.088;8.850;2023-05-27T11:08:25;28.50;99.90
67163;DHT22;54092;53.088;8.850;2023-05-27T11:10:57;28.40;99.90
67163;DHT22;54092;53.088;8.850;2023-05-27T11:13:22;27.50;99.90
67163;DHT22;54092;53.088;8.850;2023-05-27T11:15:54;27.50;99.90
67163;DHT22;54092;53.088;8.850;2023-05-27T11:18:19;27.20;99.90
67163;DHT22;54092;53.088;8.850;2023-05-27T11:20:47;26.70;99.90
67163;DHT22;54092;53.088;8.850;2023-05-27T11:23:12;26.70;99.90
67163;DHT22;54092;53.088;8.850;2023-05-27T11:25:44;26.90;99.90
67163;DHT22;54092;53.088;8.850;2023-05-27T11:28:16;27.70;99.90
67163;DHT22;54092;53.088;8.850;2023-05-27T11:30:42;27.60;99.90
67163;DHT22;54092;53.088;8.850;2023-05-27T11:33:08;26.30;99.90
67163;DHT22;54092;53.088;8.850;2023-05-27T11:35:33;27.10;99.90
67163;DHT22;54092;53.088;8.850;2023-05-27T11:37:59;27.00;99.90
67163;DHT22;54092;53.088;8.850;2023-05-27T11:40:33;27.70;99.90
67163;DHT22;54092;53.088;8.850;2023-05-27T11:43:01;26.80;99.90
67163;DHT22;54092;53.088;8.850;2023-05-27T11:45:27;27.20;99.90
67163;DHT22;54092;53.088;8.850;2023-05-27T11:47:53;27.40;99.90
67163;DHT22;54092;53.088;8.850;2023-05-27T11:50:22;27.90;99.90
67163;DHT22;54092;53.088;8.850;2023-05-27T11:52:56;27.50;99.90
67163;DHT22;54092;53.088;8.850;2023-05-27T11:55:22;27.50;99.90
67163;DHT22;54092;53.088;8.850;2023-05-27T11:57:49;27.50;99.90
67163;DHT22;54092;53.088;8.850;2023-05-27T12:00:14;27.70;99.90
67163;DHT22;54092;53.088;8.850;2023-05-27T12:02:41;27.60;99.90
67163;DHT22;54092;53.088;8.850;2023-05-27T12:05:08;28.00;99.90
67163;DHT22;54092;53.088;8.850;2023-05-27T12:07:34;28.40;99.90
67163;DHT22;54092;53.088;8.850;2023-05-27T12:10:01;28.30;99.90
67163;DHT22;54092;53.088;8.850;2023-05-27T12:12:26;28.40;99.90
67163;DHT22;54092;53.088;8.850;2023-05-27T12:14:52;28.60;99.90
67163;DHT22;54092;53.088;8.850;2023-05-27T12:17:17;28.70;99.90
67163;DHT22;54092;53.088;8.850;2023-05-27T12:19:43;28.70;99.90
67163;DHT22;54092;53.088;8.850;2023-05-27T12:22:08;28.70;99.90
67163;DHT22;54092;53.088;8.850;2023-05-27T12:24:34;28.40;99.90
67163;DHT22;54092;53.088;8.850;2023-05-27T12:26:59;27.50;99.90
67163;DHT22;54092;53.088;8.850;2023-05-27T12:29:26;26.90;99.90
67163;DHT22;54092;53.088;8.850;2023-05-27T12:31:52;26.00;99.90
67163;DHT22;54092;53.088;8.850;2023-05-27T12:34:18;25.40;99.90
67163;DHT22;54092;53.088;8.850;2023-05-27T12:36:43;24.80;99.90
67163;DHT22;54092;53.088;8.850;2023-05-27T12:39:09;24.10;99.90
67163;DHT22;54092;53.088;8.850;2023-05-27T12:41:35;23.70;99.90
67163;DHT22;54092;53.088;8.850;2023-05-27T12:44:01;22.90;99.90
67163;DHT22;54092;53.088;8.850;2023-05-27T12:46:26;22.50;99.90
67163;DHT22;54092;53.088;8.850;2023-05-27T12:48:52;22.50;99.90
67163;DHT22;54092;53.088;8.850;2023-05-27T12:51:17;22.30;99.90
67163;DHT22;54092;53.088;8.850;2023-05-27T12:53:43;22.30;99.90
67163;DHT22;54092;53.088;8.850;2023-05-27T12:56:08;22.20;99.90
67163;DHT22;54092;53.088;8.850;2023-05-27T12:58:34;22.20;99.90
67163;DHT22;54092;53.088;8.850;2023-05-27T13:00:59;22.20;99.90
67163;DHT22;54092;53.088;8.850;2023-05-27T13:03:25;22.10;99.90
67163;DHT22;54092;53.088;8.850;2023-05-27T13:05:51;22.10;99.90
67163;DHT22;54092;53.088;8.850;2023-05-27T13:08:16;22.00;99.90
67163;DHT22;54092;53.088;8.850;2023-05-27T13:10:42;21.80;99.90
67163;DHT22;54092;53.088;8.850;2023-05-27T13:13:07;21.70;99.90
67163;DHT22;54092;53.088;8.850;2023-05-27T13:15:33;21.50;99.90
67163;DHT22;54092;53.088;8.850;2023-05-27T13:17:58;21.40;99.90
67163;DHT22;54092;53.088;8.850;2023-05-27T13:20:25;21.30;99.90
67163;DHT22;54092;53.088;8.850;2023-05-27T13:22:51;21.10;99.90
67163;DHT22;54092;53.088;8.850;2023-05-27T13:25:18;21.00;99.90
67163;DHT22;54092;53.088;8.850;2023-05-27T13:27:44;21.10;99.90
67163;DHT22;54092;53.088;8.850;2023-05-27T13:30:11;21.10;99.90
67163;DHT22;54092;53.088;8.850;2023-05-27T13:32:38;21.00;99.90
67163;DHT22;54092;53.088;8.850;2023-05-27T13:35:04;20.90;99.90
67163;DHT22;54092;53.088;8.850;2023-05-27T13:37:30;21.00;99.90
67163;DHT22;54092;53.088;8.850;2023-05-27T13:39:55;21.00;99.90
67163;DHT22;54092;53.088;8.850;2023-05-27T13:42:22;20.70;99.90
67163;DHT22;54092;53.088;8.850;2023-05-27T13:44:48;20.70;99.90
67163;DHT22;54092;53.088;8.850;2023-05-27T13:47:13;20.90;99.90
67163;DHT22;54092;53.088;8.850;2023-05-27T13:49:39;21.00;99.90
67163;DHT22;54092;53.088;8.850;2023-05-27T13:52:04;20.90;99.90
67163;DHT22;54092;53.088;8.850;2023-05-27T13:54:30;20.90;99.90
67163;DHT22;54092;53.088;8.850;2023-05-27T13:56:55;20.80;99.90
67163;DHT22;54092;53.088;8.850;2023-05-27T13:59:21;20.80;99.90
67163;DHT22;54092;53.088;8.850;2023-05-27T14:01:46;20.70;99.90
67163;DHT22;54092;53.088;8.850;2023-05-27T14:04:12;20.70;99.90
67163;DHT22;54092;53.088;8.850;2023-05-27T14:06:37;20.80;99.90
67163;DHT22;54092;53.088;8.850;2023-05-27T14:09:03;20.80;99.90
67163;DHT22;54092;53.088;8.850;2023-05-27T14:11:29;21.00;99.90
67163;DHT22;54092;53.088;8.850;2023-05-27T14:13:55;20.90;99.90
67163;DHT22;54092;53.088;8.850;2023-05-27T14:16:21;20.80;99.90
67163;DHT22;54092;53.088;8.850;2023-05-27T14:18:47;20.80;99.90
67163;DHT22;54092;53.088;8.850;2023-05-27T14:21:13;20.60;99.90
67163;DHT22;54092;53.088;8.850;2023-05-27T14:23:39;20.50;99.90
67163;DHT22;54092;53.088;8.850;2023-05-27T14:26:04;20.50;99.90
67163;DHT22;54092;53.088;8.850;2023-05-27T14:28:31;20.60;99.90
67163;DHT22;54092;53.088;8.850;2023-05-27T14:30:56;20.70;99.90
67163;DHT22;54092;53.088;8.850;2023-05-27T14:33:22;20.70;99.90
67163;DHT22;54092;53.088;8.850;2023-05-27T14:35:47;20.80;99.90
67163;DHT22;54092;53.088;8.850;2023-05-27T14:38:16;20.80;99.90
67163;DHT22;54092;53.088;8.850;2023-05-27T14:40:42;20.90;99.90
67163;DHT22;54092;53.088;8.850;2023-05-27T14:43:09;20.90;99.90
67163;DHT22;54092;53.088;8.850;2023-05-27T14:45:35;21.00;99.90
67163;DHT22;54092;53.088;8.850;2023-05-27T14:48:00;21.20;99.90
67163;DHT22;54092;53.088;8.850;2023-05-27T14:50:26;21.20;99.90
67163;DHT22;54092;53.088;8.850;2023-05-27T14:52:52;21.20;99.90
67163;DHT22;54092;53.088;8.850;2023-05-27T14:55:18;21.20;99.90
67163;DHT22;54092;53.088;8.850;2023-05-27T14:57:43;21.10;99.90
67163;DHT22;54092;53.088;8.850;2023-05-27T15:00:09;21.00;99.90
67163;DHT22;54092;53.088;8.850;2023-05-27T15:02:35;20.90;99.90
67163;DHT22;54092;53.088;8.850;2023-05-27T15:05:05;20.90;99.90
67163;DHT22;54092;53.088;8.850;2023-05-27T15:07:32;20.80;99.90
67163;DHT22;54092;53.088;8.850;2023-05-27T15:09:58;20.80;99.90
67163;DHT22;54092;53.088;8.850;2023-05-27T15:12:24;20.80;99.90
67163;DHT22;54092;53.088;8.850;2023-05-27T15:14:50;20.70;99.90
67163;DHT22;54092;53.088;8.850;2023-05-27T15:17:15;20.80;99.90
67163;DHT22;54092;53.088;8.850;2023-05-27T15:19:41;20.80;99.90
67163;DHT22;54092;53.088;8.850;2023-05-27T15:22:06;20.80;99.90
67163;DHT22;54092;53.088;8.850;2023-05-27T15:24:33;20.80;99.90
67163;DHT22;54092;53.088;8.850;2023-05-27T15:26:58;20.70;99.90
67163;DHT22;54092;53.088;8.850;2023-05-27T15:29:24;20.60;99.90
67163;DHT22;54092;53.088;8.850;2023-05-27T15:31:50;20.70;99.90
67163;DHT22;54092;53.088;8.850;2023-05-27T15:34:16;20.70;99.90
67163;DHT22;54092;53.088;8.850;2023-05-27T15:36:41;20.90;99.90